sensor_id;sensor_type;location;lat;lon;timestamp;P1;durP1;ratioP1;P2;durP2;ratioP2
62852;SDS011;49205;44.868;38.140;2022-08-30T00:02:02;13.00;;;5.75;;
62852;SDS011;49205;44.868;38.140;2022-08-30T00:04:32;8.88;;;5.70;;
62852;SDS011;49205;44.868;38.140;2022-08-30T00:07:01;10.28;;;5.60;;
62852;SDS011;49205;44.868;38.140;2022-08-30T00:09:31;15.63;;;7.08;;
62852;SDS011;49205;44.868;38.140;2022-08-30T00:12:00;10.88;;;5.90;;
62852;SDS011;49205;44.868;38.140;2022-08-30T00:14:30;11.88;;;6.35;;
62852;SDS011;49205;44.868;38.140;2022-08-30T00:16:59;7.60;;;6.42;;
62852;SDS011;49205;44.868;38.140;2022-08-30T00:19:28;9.18;;;5.78;;
62852;SDS011;49205;44.868;38.140;2022-08-30T00:21:58;11.22;;;5.92;;
62852;SDS011;49205;44.868;38.140;2022-08-30T00:24:28;11.45;;;6.00;;
62852;SDS011;49205;44.868;38.140;2022-08-30T00:26:57;13.35;;;6.12;;
62852;SDS011;49205;44.868;38.140;2022-08-30T00:29:26;10.93;;;5.67;;
62852;SDS011;49205;44.868;38.140;2022-08-30T00:31:56;10.45;;;5.67;;
62852;SDS011;49205;44.868;38.140;2022-08-30T00:34:25;14.13;;;6.62;;
62852;SDS011;49205;44.868;38.140;2022-08-30T00:36:54;12.05;;;6.85;;
62852;SDS011;49205;44.868;38.140;2022-08-30T00:39:25;8.60;;;6.25;;
62852;SDS011;49205;44.868;38.140;2022-08-30T00:41:54;15.28;;;6.22;;
62852;SDS011;49205;44.868;38.140;2022-08-30T00:44:23;10.23;;;5.83;;
62852;SDS011;49205;44.868;38.140;2022-08-30T00:46:52;11.85;;;6.22;;
62852;SDS011;49205;44.868;38.140;2022-08-30T00:49:22;9.08;;;5.80;;
62852;SDS011;49205;44.868;38.140;2022-08-30T00:51:51;10.70;;;5.60;;
62852;SDS011;49205;44.868;38.140;2022-08-30T00:54:22;11.10;;;5.62;;
62852;SDS011;49205;44.868;38.140;2022-08-30T00:56:52;10.53;;;6.03;;
62852;SDS011;49205;44.868;38.140;2022-08-30T00:59:21;7.85;;;5.30;;
62852;SDS011;49205;44.868;38.140;2022-08-30T01:01:52;8.35;;;5.60;;
62852;SDS011;49205;44.868;38.140;2022-08-30T01:04:22;10.78;;;4.92;;
62852;SDS011;49205;44.868;38.140;2022-08-30T01:06:53;6.75;;;4.62;;
62852;SDS011;49205;44.868;38.140;2022-08-30T01:09:22;12.05;;;5.03;;
62852;SDS011;49205;44.868;38.140;2022-08-30T01:11:52;7.70;;;5.17;;
62852;SDS011;49205;44.868;38.140;2022-08-30T01:14:21;6.60;;;4.60;;
62852;SDS011;49205;44.868;38.140;2022-08-30T01:16:51;9.93;;;5.28;;
62852;SDS011;49205;44.868;38.140;2022-08-30T01:22:18;7.78;;;5.30;;
62852;SDS011;49205;44.868;38.140;2022-08-30T01:25:02;10.40;;;5.80;;
62852;SDS011;49205;44.868;38.140;2022-08-30T01:27:35;9.85;;;6.17;;
62852;SDS011;49205;44.868;38.140;2022-08-30T01:30:06;7.85;;;5.97;;
62852;SDS011;49205;44.868;38.140;2022-08-30T01:32:41;8.55;;;5.67;;
62852;SDS011;49205;44.868;38.140;2022-08-30T01:35:11;9.00;;;5.78;;
62852;SDS011;49205;44.868;38.140;2022-08-30T01:37:43;10.20;;;5.90;;
62852;SDS011;49205;44.868;38.140;2022-08-30T01:40:13;11.93;;;6.62;;
62852;SDS011;49205;44.868;38.140;2022-08-30T01:42:43;10.60;;;6.00;;
62852;SDS011;49205;44.868;38.140;2022-08-30T01:45:12;11.70;;;5.45;;
62852;SDS011;49205;44.868;38.140;2022-08-30T01:47:42;11.73;;;6.03;;
62852;SDS011;49205;44.868;38.140;2022-08-30T01:50:11;11.48;;;5.80;;
62852;SDS011;49205;44.868;38.140;2022-08-30T01:52:41;7.92;;;5.50;;
62852;SDS011;49205;44.868;38.140;2022-08-30T01:55:10;10.82;;;5.97;;
62852;SDS011;49205;44.868;38.140;2022-08-30T01:57:39;11.43;;;6.25;;
62852;SDS011;49205;44.868;38.140;2022-08-30T02:00:09;13.95;;;6.30;;
62852;SDS011;49205;44.868;38.140;2022-08-30T02:02:39;13.55;;;6.35;;
62852;SDS011;49205;44.868;38.140;2022-08-30T02:05:09;12.85;;;5.80;;
62852;SDS011;49205;44.868;38.140;2022-08-30T02:07:38;12.75;;;6.75;;
62852;SDS011;49205;44.868;38.140;2022-08-30T02:10:08;13.70;;;6.45;;
62852;SDS011;49205;44.868;38.140;2022-08-30T02:12:38;10.58;;;5.90;;
62852;SDS011;49205;44.868;38.140;2022-08-30T02:15:08;10.82;;;6.10;;
62852;SDS011;49205;44.868;38.140;2022-08-30T02:17:38;12.43;;;5.72;;
62852;SDS011;49205;44.868;38.140;2022-08-30T02:20:09;9.78;;;5.87;;
62852;SDS011;49205;44.868;38.140;2022-08-30T02:22:38;11.12;;;5.72;;
62852;SDS011;49205;44.868;38.140;2022-08-30T02:25:08;13.78;;;5.05;;
62852;SDS011;49205;44.868;38.140;2022-08-30T02:27:37;10.95;;;5.17;;
62852;SDS011;49205;44.868;38.140;2022-08-30T02:30:08;8.70;;;5.42;;
62852;SDS011;49205;44.868;38.140;2022-08-30T02:32:38;12.58;;;6.10;;
62852;SDS011;49205;44.868;38.140;2022-08-30T02:35:07;10.90;;;5.35;;
62852;SDS011;49205;44.868;38.140;2022-08-30T02:37:37;11.88;;;5.92;;
62852;SDS011;49205;44.868;38.140;2022-08-30T02:40:06;9.78;;;4.92;;
62852;SDS011;49205;44.868;38.140;2022-08-30T02:42:36;11.12;;;5.72;;
62852;SDS011;49205;44.868;38.140;2022-08-30T02:45:07;11.75;;;6.87;;
62852;SDS011;49205;44.868;38.140;2022-08-30T02:47:37;13.32;;;5.28;;
62852;SDS011;49205;44.868;38.140;2022-08-30T02:50:06;8.95;;;5.20;;
62852;SDS011;49205;44.868;38.140;2022-08-30T02:52:36;7.92;;;5.00;;
62852;SDS011;49205;44.868;38.140;2022-08-30T02:55:06;5.97;;;4.60;;
62852;SDS011;49205;44.868;38.140;2022-08-30T02:57:36;9.38;;;4.70;;
62852;SDS011;49205;44.868;38.140;2022-08-30T03:00:06;9.55;;;4.87;;
62852;SDS011;49205;44.868;38.140;2022-08-30T03:02:38;8.15;;;5.15;;
62852;SDS011;49205;44.868;38.140;2022-08-30T03:05:08;13.43;;;6.92;;
62852;SDS011;49205;44.868;38.140;2022-08-30T03:07:39;6.65;;;4.30;;
62852;SDS011;49205;44.868;38.140;2022-08-30T03:10:09;10.85;;;4.75;;
62852;SDS011;49205;44.868;38.140;2022-08-30T03:12:43;10.58;;;4.92;;
62852;SDS011;49205;44.868;38.140;2022-08-30T03:15:39;9.55;;;4.90;;
62852;SDS011;49205;44.868;38.140;2022-08-30T03:18:08;8.43;;;5.67;;
62852;SDS011;49205;44.868;38.140;2022-08-30T03:20:39;9.55;;;5.72;;
62852;SDS011;49205;44.868;38.140;2022-08-30T03:23:08;7.10;;;5.05;;
62852;SDS011;49205;44.868;38.140;2022-08-30T03:25:38;14.45;;;7.22;;
62852;SDS011;49205;44.868;38.140;2022-08-30T03:28:08;9.15;;;5.65;;
62852;SDS011;49205;44.868;38.140;2022-08-30T03:30:37;10.48;;;5.87;;
62852;SDS011;49205;44.868;38.140;2022-08-30T03:33:06;9.18;;;6.15;;
62852;SDS011;49205;44.868;38.140;2022-08-30T03:35:36;11.38;;;6.05;;
62852;SDS011;49205;44.868;38.140;2022-08-30T03:38:05;6.58;;;5.50;;
62852;SDS011;49205;44.868;38.140;2022-08-30T03:40:34;9.05;;;5.50;;
62852;SDS011;49205;44.868;38.140;2022-08-30T03:43:03;10.75;;;5.80;;
62852;SDS011;49205;44.868;38.140;2022-08-30T03:45:33;11.48;;;6.05;;
62852;SDS011;49205;44.868;38.140;2022-08-30T03:48:02;10.45;;;5.47;;
62852;SDS011;49205;44.868;38.140;2022-08-30T03:50:33;10.00;;;5.95;;
62852;SDS011;49205;44.868;38.140;2022-08-30T03:53:03;11.00;;;5.60;;
62852;SDS011;49205;44.868;38.140;2022-08-30T03:55:32;12.23;;;5.80;;
62852;SDS011;49205;44.868;38.140;2022-08-30T03:58:01;8.65;;;5.72;;
62852;SDS011;49205;44.868;38.140;2022-08-30T04:00:31;10.58;;;6.25;;
62852;SDS011;49205;44.868;38.140;2022-08-30T04:03:00;8.23;;;5.15;;
62852;SDS011;49205;44.868;38.140;2022-08-30T04:05:30;10.18;;;6.15;;
62852;SDS011;49205;44.868;38.140;2022-08-30T04:07:59;12.18;;;6.35;;
62852;SDS011;49205;44.868;38.140;2022-08-30T04:10:28;9.53;;;6.55;;
62852;SDS011;49205;44.868;38.140;2022-08-30T04:12:57;11.38;;;6.53;;
62852;SDS011;49205;44.868;38.140;2022-08-30T04:15:27;11.85;;;6.58;;
62852;SDS011;49205;44.868;38.140;2022-08-30T04:17:56;15.48;;;6.95;;
62852;SDS011;49205;44.868;38.140;2022-08-30T04:20:26;13.93;;;7.58;;
62852;SDS011;49205;44.868;38.140;2022-08-30T04:22:55;10.82;;;7.50;;
62852;SDS011;49205;44.868;38.140;2022-08-30T04:25:25;16.87;;;7.53;;
62852;SDS011;49205;44.868;38.140;2022-08-30T04:27:54;15.55;;;7.50;;
62852;SDS011;49205;44.868;38.140;2022-08-30T04:30:23;16.82;;;9.30;;
62852;SDS011;49205;44.868;38.140;2022-08-30T04:32:52;11.12;;;7.58;;
62852;SDS011;49205;44.868;38.140;2022-08-30T04:35:22;12.03;;;7.65;;
62852;SDS011;49205;44.868;38.140;2022-08-30T04:37:52;13.45;;;7.90;;
62852;SDS011;49205;44.868;38.140;2022-08-30T04:40:22;17.15;;;7.58;;
62852;SDS011;49205;44.868;38.140;2022-08-30T04:42:51;10.55;;;7.62;;
62852;SDS011;49205;44.868;38.140;2022-08-30T04:45:22;9.80;;;7.58;;
62852;SDS011;49205;44.868;38.140;2022-08-30T04:47:51;16.05;;;7.65;;
62852;SDS011;49205;44.868;38.140;2022-08-30T04:50:21;14.05;;;8.55;;
62852;SDS011;49205;44.868;38.140;2022-08-30T04:52:50;15.85;;;8.63;;
62852;SDS011;49205;44.868;38.140;2022-08-30T04:55:20;15.58;;;8.73;;
62852;SDS011;49205;44.868;38.140;2022-08-30T04:57:51;22.55;;;10.32;;
62852;SDS011;49205;44.868;38.140;2022-08-30T05:00:20;19.12;;;9.18;;
62852;SDS011;49205;44.868;38.140;2022-08-30T05:02:49;21.00;;;11.75;;
62852;SDS011;49205;44.868;38.140;2022-08-30T05:05:19;25.52;;;12.15;;
62852;SDS011;49205;44.868;38.140;2022-08-30T05:08:08;17.75;;;11.35;;
62852;SDS011;49205;44.868;38.140;2022-08-30T05:10:44;21.85;;;12.50;;
62852;SDS011;49205;44.868;38.140;2022-08-30T05:13:10;22.17;;;10.65;;
62852;SDS011;49205;44.868;38.140;2022-08-30T05:15:39;30.40;;;12.23;;
62852;SDS011;49205;44.868;38.140;2022-08-30T05:18:09;23.73;;;11.68;;
62852;SDS011;49205;44.868;38.140;2022-08-30T05:20:39;26.12;;;13.45;;
62852;SDS011;49205;44.868;38.140;2022-08-30T05:23:09;23.85;;;13.22;;
62852;SDS011;49205;44.868;38.140;2022-08-30T05:25:39;38.67;;;18.70;;
62852;SDS011;49205;44.868;38.140;2022-08-30T05:28:09;27.30;;;15.28;;
62852;SDS011;49205;44.868;38.140;2022-08-30T05:30:38;29.37;;;15.20;;
62852;SDS011;49205;44.868;38.140;2022-08-30T05:33:08;29.80;;;12.43;;
62852;SDS011;49205;44.868;38.140;2022-08-30T05:35:37;28.47;;;12.05;;
62852;SDS011;49205;44.868;38.140;2022-08-30T05:38:06;23.10;;;12.33;;
62852;SDS011;49205;44.868;38.140;2022-08-30T05:40:38;18.12;;;11.05;;
62852;SDS011;49205;44.868;38.140;2022-08-30T05:43:10;26.85;;;12.35;;
62852;SDS011;49205;44.868;38.140;2022-08-30T05:45:40;24.30;;;9.35;;
62852;SDS011;49205;44.868;38.140;2022-08-30T05:48:09;24.63;;;8.95;;
62852;SDS011;49205;44.868;38.140;2022-08-30T05:50:38;27.85;;;9.40;;
62852;SDS011;49205;44.868;38.140;2022-08-30T05:53:07;16.65;;;6.85;;
62852;SDS011;49205;44.868;38.140;2022-08-30T05:55:39;15.75;;;6.87;;
62852;SDS011;49205;44.868;38.140;2022-08-30T05:58:08;24.35;;;6.97;;
62852;SDS011;49205;44.868;38.140;2022-08-30T06:00:37;14.43;;;5.80;;
62852;SDS011;49205;44.868;38.140;2022-08-30T06:03:07;20.35;;;7.60;;
62852;SDS011;49205;44.868;38.140;2022-08-30T06:05:38;12.30;;;5.40;;
62852;SDS011;49205;44.868;38.140;2022-08-30T06:08:08;19.25;;;7.15;;
62852;SDS011;49205;44.868;38.140;2022-08-30T06:10:37;16.80;;;5.62;;
62852;SDS011;49205;44.868;38.140;2022-08-30T06:13:06;14.70;;;5.83;;
62852;SDS011;49205;44.868;38.140;2022-08-30T06:15:39;15.45;;;5.47;;
62852;SDS011;49205;44.868;38.140;2022-08-30T06:18:11;15.32;;;5.55;;
62852;SDS011;49205;44.868;38.140;2022-08-30T06:20:41;16.37;;;6.03;;
62852;SDS011;49205;44.868;38.140;2022-08-30T06:23:12;12.37;;;5.62;;
62852;SDS011;49205;44.868;38.140;2022-08-30T06:25:43;18.52;;;6.28;;
62852;SDS011;49205;44.868;38.140;2022-08-30T06:28:13;16.12;;;6.12;;
62852;SDS011;49205;44.868;38.140;2022-08-30T06:30:42;12.20;;;5.58;;
62852;SDS011;49205;44.868;38.140;2022-08-30T06:33:11;18.32;;;6.35;;
62852;SDS011;49205;44.868;38.140;2022-08-30T06:35:40;15.68;;;6.05;;
62852;SDS011;49205;44.868;38.140;2022-08-30T06:38:10;19.75;;;6.08;;
62852;SDS011;49205;44.868;38.140;2022-08-30T06:40:39;18.40;;;5.97;;
62852;SDS011;49205;44.868;38.140;2022-08-30T06:43:08;12.82;;;5.47;;
62852;SDS011;49205;44.868;38.140;2022-08-30T06:45:38;15.25;;;6.85;;
62852;SDS011;49205;44.868;38.140;2022-08-30T06:48:07;13.50;;;5.33;;
62852;SDS011;49205;44.868;38.140;2022-08-30T06:50:37;18.02;;;6.58;;
62852;SDS011;49205;44.868;38.140;2022-08-30T06:53:08;16.80;;;5.08;;
62852;SDS011;49205;44.868;38.140;2022-08-30T06:55:37;15.18;;;6.67;;
62852;SDS011;49205;44.868;38.140;2022-08-30T06:58:06;18.73;;;8.10;;
62852;SDS011;49205;44.868;38.140;2022-08-30T07:00:35;16.73;;;6.30;;
62852;SDS011;49205;44.868;38.140;2022-08-30T07:03:06;17.15;;;8.48;;
62852;SDS011;49205;44.868;38.140;2022-08-30T07:05:35;20.27;;;7.95;;
62852;SDS011;49205;44.868;38.140;2022-08-30T07:08:04;20.40;;;6.60;;
62852;SDS011;49205;44.868;38.140;2022-08-30T07:10:36;20.00;;;6.15;;
62852;SDS011;49205;44.868;38.140;2022-08-30T07:13:08;19.90;;;6.85;;
62852;SDS011;49205;44.868;38.140;2022-08-30T07:15:40;14.90;;;6.55;;
62852;SDS011;49205;44.868;38.140;2022-08-30T07:18:10;14.38;;;6.10;;
62852;SDS011;49205;44.868;38.140;2022-08-30T07:21:04;14.98;;;5.95;;
62852;SDS011;49205;44.868;38.140;2022-08-30T07:23:36;13.98;;;5.72;;
62852;SDS011;49205;44.868;38.140;2022-08-30T07:26:06;17.48;;;6.97;;
62852;SDS011;49205;44.868;38.140;2022-08-30T07:28:37;17.82;;;5.80;;
62852;SDS011;49205;44.868;38.140;2022-08-30T07:31:08;14.68;;;5.65;;
62852;SDS011;49205;44.868;38.140;2022-08-30T07:33:38;16.02;;;5.72;;
62852;SDS011;49205;44.868;38.140;2022-08-30T07:36:08;17.42;;;6.50;;
62852;SDS011;49205;44.868;38.140;2022-08-30T07:38:37;16.55;;;5.75;;
62852;SDS011;49205;44.868;38.140;2022-08-30T07:41:07;18.20;;;7.22;;
62852;SDS011;49205;44.868;38.140;2022-08-30T07:43:36;17.37;;;6.00;;
62852;SDS011;49205;44.868;38.140;2022-08-30T07:46:06;14.20;;;5.97;;
62852;SDS011;49205;44.868;38.140;2022-08-30T07:48:35;16.60;;;6.70;;
62852;SDS011;49205;44.868;38.140;2022-08-30T07:51:07;14.80;;;6.95;;
62852;SDS011;49205;44.868;38.140;2022-08-30T07:53:42;13.00;;;6.42;;
62852;SDS011;49205;44.868;38.140;2022-08-30T07:56:12;14.78;;;6.00;;
62852;SDS011;49205;44.868;38.140;2022-08-30T07:58:42;17.00;;;7.08;;
62852;SDS011;49205;44.868;38.140;2022-08-30T08:01:11;14.68;;;5.50;;
62852;SDS011;49205;44.868;38.140;2022-08-30T08:03:41;17.60;;;5.62;;
62852;SDS011;49205;44.868;38.140;2022-08-30T08:06:11;14.87;;;5.67;;
62852;SDS011;49205;44.868;38.140;2022-08-30T08:08:41;24.27;;;6.85;;
62852;SDS011;49205;44.868;38.140;2022-08-30T08:11:15;12.50;;;6.67;;
62852;SDS011;49205;44.868;38.140;2022-08-30T08:13:46;11.40;;;5.20;;
62852;SDS011;49205;44.868;38.140;2022-08-30T08:16:16;19.48;;;6.05;;
62852;SDS011;49205;44.868;38.140;2022-08-30T08:18:47;13.32;;;5.92;;
62852;SDS011;49205;44.868;38.140;2022-08-30T08:21:17;14.40;;;5.47;;
62852;SDS011;49205;44.868;38.140;2022-08-30T08:23:46;16.93;;;6.40;;
62852;SDS011;49205;44.868;38.140;2022-08-30T08:26:16;13.58;;;6.17;;
62852;SDS011;49205;44.868;38.140;2022-08-30T08:28:46;13.98;;;5.65;;
62852;SDS011;49205;44.868;38.140;2022-08-30T08:31:16;20.80;;;5.92;;
62852;SDS011;49205;44.868;38.140;2022-08-30T08:33:50;17.45;;;7.12;;
62852;SDS011;49205;44.868;38.140;2022-08-30T08:36:20;14.00;;;5.78;;
62852;SDS011;49205;44.868;38.140;2022-08-30T08:38:49;11.57;;;5.83;;
62852;SDS011;49205;44.868;38.140;2022-08-30T08:47:25;18.15;;;5.50;;
62852;SDS011;49205;44.868;38.140;2022-08-30T08:50:06;14.13;;;6.90;;
62852;SDS011;49205;44.868;38.140;2022-08-30T08:52:42;17.42;;;7.87;;
62852;SDS011;49205;44.868;38.140;2022-08-30T08:55:41;10.70;;;5.65;;
62852;SDS011;49205;44.868;38.140;2022-08-30T08:58:16;16.85;;;6.25;;
62852;SDS011;49205;44.868;38.140;2022-08-30T09:00:47;12.85;;;5.20;;
62852;SDS011;49205;44.868;38.140;2022-08-30T09:03:17;15.40;;;5.12;;
62852;SDS011;49205;44.868;38.140;2022-08-30T09:05:48;13.20;;;5.03;;
62852;SDS011;49205;44.868;38.140;2022-08-30T09:08:19;14.43;;;4.97;;
62852;SDS011;49205;44.868;38.140;2022-08-30T09:10:53;9.60;;;4.03;;
62852;SDS011;49205;44.868;38.140;2022-08-30T09:13:30;16.17;;;5.03;;
62852;SDS011;49205;44.868;38.140;2022-08-30T09:15:59;12.80;;;5.10;;
62852;SDS011;49205;44.868;38.140;2022-08-30T09:18:44;16.52;;;7.70;;
62852;SDS011;49205;44.868;38.140;2022-08-30T09:21:19;12.78;;;5.05;;
62852;SDS011;49205;44.868;38.140;2022-08-30T09:23:54;13.38;;;4.05;;
62852;SDS011;49205;44.868;38.140;2022-08-30T09:28:58;11.30;;;4.17;;
62852;SDS011;49205;44.868;38.140;2022-08-30T09:31:28;12.25;;;4.08;;
62852;SDS011;49205;44.868;38.140;2022-08-30T09:34:00;20.70;;;4.58;;
62852;SDS011;49205;44.868;38.140;2022-08-30T09:36:41;19.17;;;5.28;;
62852;SDS011;49205;44.868;38.140;2022-08-30T09:39:31;10.32;;;4.35;;
62852;SDS011;49205;44.868;38.140;2022-08-30T09:42:12;18.17;;;5.55;;
62852;SDS011;49205;44.868;38.140;2022-08-30T09:44:47;22.90;;;6.05;;
62852;SDS011;49205;44.868;38.140;2022-08-30T09:47:51;11.35;;;6.37;;
62852;SDS011;49205;44.868;38.140;2022-08-30T09:50:04;15.03;;;5.37;;
62852;SDS011;49205;44.868;38.140;2022-08-30T09:52:46;18.17;;;5.62;;
62852;SDS011;49205;44.868;38.140;2022-08-30T09:58:12;11.35;;;4.37;;
62852;SDS011;49205;44.868;38.140;2022-08-30T10:03:46;8.38;;;4.10;;
62852;SDS011;49205;44.868;38.140;2022-08-30T10:06:23;8.70;;;3.95;;
62852;SDS011;49205;44.868;38.140;2022-08-30T10:09:03;11.03;;;4.93;;
62852;SDS011;49205;44.868;38.140;2022-08-30T10:12:01;10.82;;;4.35;;
62852;SDS011;49205;44.868;38.140;2022-08-30T10:20:05;16.37;;;4.90;;
62852;SDS011;49205;44.868;38.140;2022-08-30T10:22:55;16.12;;;5.10;;
62852;SDS011;49205;44.868;38.140;2022-08-30T10:25:37;11.25;;;4.97;;
62852;SDS011;49205;44.868;38.140;2022-08-30T10:28:13;13.98;;;5.25;;
62852;SDS011;49205;44.868;38.140;2022-08-30T10:30:51;30.02;;;6.22;;
62852;SDS011;49205;44.868;38.140;2022-08-30T10:33:18;17.73;;;5.60;;
62852;SDS011;49205;44.868;38.140;2022-08-30T10:35:53;12.93;;;4.90;;
62852;SDS011;49205;44.868;38.140;2022-08-30T10:38:28;11.55;;;5.15;;
62852;SDS011;49205;44.868;38.140;2022-08-30T10:41:17;20.72;;;6.20;;
62852;SDS011;49205;44.868;38.140;2022-08-30T10:43:48;11.05;;;4.75;;
62852;SDS011;49205;44.868;38.140;2022-08-30T10:46:35;8.78;;;5.10;;
62852;SDS011;49205;44.868;38.140;2022-08-30T10:49:13;13.68;;;5.15;;
62852;SDS011;49205;44.868;38.140;2022-08-30T10:51:45;11.78;;;4.70;;
62852;SDS011;49205;44.868;38.140;2022-08-30T10:54:20;10.82;;;3.95;;
62852;SDS011;49205;44.868;38.140;2022-08-30T10:56:49;15.50;;;4.17;;
62852;SDS011;49205;44.868;38.140;2022-08-30T10:59:19;17.42;;;5.00;;
62852;SDS011;49205;44.868;38.140;2022-08-30T11:01:54;18.15;;;5.12;;
62852;SDS011;49205;44.868;38.140;2022-08-30T11:16:04;16.48;;;4.53;;
62852;SDS011;49205;44.868;38.140;2022-08-30T11:21:38;15.93;;;4.70;;
62852;SDS011;49205;44.868;38.140;2022-08-30T11:24:09;15.03;;;4.47;;
62852;SDS011;49205;44.868;38.140;2022-08-30T11:26:52;14.18;;;4.67;;
62852;SDS011;49205;44.868;38.140;2022-08-30T11:31:59;19.50;;;5.60;;
62852;SDS011;49205;44.868;38.140;2022-08-30T11:37:36;17.70;;;5.20;;
62852;SDS011;49205;44.868;38.140;2022-08-30T11:40:28;11.10;;;5.40;;
62852;SDS011;49205;44.868;38.140;2022-08-30T11:42:52;11.40;;;4.65;;
62852;SDS011;49205;44.868;38.140;2022-08-30T11:47:58;14.58;;;4.60;;
62852;SDS011;49205;44.868;38.140;2022-08-30T12:01:12;9.78;;;4.53;;
62852;SDS011;49205;44.868;38.140;2022-08-30T12:03:35;13.32;;;4.72;;
62852;SDS011;49205;44.868;38.140;2022-08-30T12:06:05;19.62;;;5.17;;
62852;SDS011;49205;44.868;38.140;2022-08-30T12:08:40;15.40;;;4.75;;
62852;SDS011;49205;44.868;38.140;2022-08-30T12:18:50;14.85;;;4.83;;
62852;SDS011;49205;44.868;38.140;2022-08-30T12:21:27;13.80;;;5.72;;
62852;SDS011;49205;44.868;38.140;2022-08-30T12:24:03;16.23;;;4.95;;
62852;SDS011;49205;44.868;38.140;2022-08-30T12:26:36;13.83;;;4.42;;
62852;SDS011;49205;44.868;38.140;2022-08-30T12:29:12;14.47;;;4.92;;
62852;SDS011;49205;44.868;38.140;2022-08-30T12:31:52;13.80;;;5.05;;
62852;SDS011;49205;44.868;38.140;2022-08-30T12:34:25;14.73;;;5.42;;
62852;SDS011;49205;44.868;38.140;2022-08-30T12:37:08;9.20;;;4.85;;
62852;SDS011;49205;44.868;38.140;2022-08-30T12:39:40;14.83;;;4.97;;
62852;SDS011;49205;44.868;38.140;2022-08-30T12:42:11;10.93;;;4.58;;
62852;SDS011;49205;44.868;38.140;2022-08-30T12:44:51;10.53;;;5.20;;
62852;SDS011;49205;44.868;38.140;2022-08-30T12:47:24;10.10;;;4.83;;
62852;SDS011;49205;44.868;38.140;2022-08-30T12:50:13;14.47;;;5.25;;
62852;SDS011;49205;44.868;38.140;2022-08-30T12:52:45;13.35;;;4.80;;
62852;SDS011;49205;44.868;38.140;2022-08-30T12:55:19;14.43;;;5.53;;
62852;SDS011;49205;44.868;38.140;2022-08-30T12:58:09;18.85;;;5.60;;
62852;SDS011;49205;44.868;38.140;2022-08-30T13:00:36;8.83;;;4.30;;
62852;SDS011;49205;44.868;38.140;2022-08-30T13:03:29;11.57;;;4.37;;
62852;SDS011;49205;44.868;38.140;2022-08-30T13:06:05;10.90;;;4.10;;
62852;SDS011;49205;44.868;38.140;2022-08-30T13:16:47;10.58;;;4.60;;
62852;SDS011;49205;44.868;38.140;2022-08-30T13:19:29;8.95;;;4.87;;
62852;SDS011;49205;44.868;38.140;2022-08-30T13:21:57;15.68;;;5.25;;
62852;SDS011;49205;44.868;38.140;2022-08-30T13:24:27;10.25;;;4.80;;
62852;SDS011;49205;44.868;38.140;2022-08-30T13:27:03;7.92;;;4.42;;
62852;SDS011;49205;44.868;38.140;2022-08-30T13:29:35;11.85;;;5.12;;
62852;SDS011;49205;44.868;38.140;2022-08-30T13:32:04;12.05;;;4.83;;
62852;SDS011;49205;44.868;38.140;2022-08-30T13:34:34;10.00;;;4.50;;
62852;SDS011;49205;44.868;38.140;2022-08-30T13:37:03;6.70;;;3.95;;
62852;SDS011;49205;44.868;38.140;2022-08-30T13:39:34;9.18;;;4.08;;
62852;SDS011;49205;44.868;38.140;2022-08-30T13:42:04;12.88;;;4.60;;
62852;SDS011;49205;44.868;38.140;2022-08-30T13:44:34;11.00;;;5.78;;
62852;SDS011;49205;44.868;38.140;2022-08-30T13:47:03;10.48;;;4.35;;
62852;SDS011;49205;44.868;38.140;2022-08-30T13:49:33;6.90;;;4.40;;
62852;SDS011;49205;44.868;38.140;2022-08-30T13:52:05;14.85;;;5.30;;
62852;SDS011;49205;44.868;38.140;2022-08-30T13:54:35;17.80;;;6.70;;
62852;SDS011;49205;44.868;38.140;2022-08-30T13:57:05;10.98;;;4.95;;
62852;SDS011;49205;44.868;38.140;2022-08-30T13:59:34;14.03;;;5.65;;
62852;SDS011;49205;44.868;38.140;2022-08-30T14:02:03;8.63;;;4.80;;
62852;SDS011;49205;44.868;38.140;2022-08-30T14:04:33;8.88;;;4.05;;
62852;SDS011;49205;44.868;38.140;2022-08-30T14:07:02;11.12;;;4.42;;
62852;SDS011;49205;44.868;38.140;2022-08-30T14:09:32;7.53;;;4.10;;
62852;SDS011;49205;44.868;38.140;2022-08-30T14:12:01;17.37;;;5.35;;
62852;SDS011;49205;44.868;38.140;2022-08-30T14:14:31;10.00;;;5.10;;
62852;SDS011;49205;44.868;38.140;2022-08-30T14:17:00;13.43;;;4.60;;
62852;SDS011;49205;44.868;38.140;2022-08-30T14:19:30;10.98;;;4.67;;
62852;SDS011;49205;44.868;38.140;2022-08-30T14:21:59;10.20;;;4.72;;
62852;SDS011;49205;44.868;38.140;2022-08-30T14:24:29;14.80;;;4.53;;
62852;SDS011;49205;44.868;38.140;2022-08-30T14:26:58;13.53;;;5.33;;
62852;SDS011;49205;44.868;38.140;2022-08-30T14:29:28;9.30;;;4.67;;
62852;SDS011;49205;44.868;38.140;2022-08-30T14:31:57;12.03;;;4.65;;
62852;SDS011;49205;44.868;38.140;2022-08-30T14:34:27;9.05;;;4.30;;
62852;SDS011;49205;44.868;38.140;2022-08-30T14:36:57;9.40;;;4.17;;
62852;SDS011;49205;44.868;38.140;2022-08-30T14:39:26;11.95;;;4.62;;
62852;SDS011;49205;44.868;38.140;2022-08-30T14:41:56;14.07;;;5.00;;
62852;SDS011;49205;44.868;38.140;2022-08-30T14:44:25;12.37;;;4.67;;
62852;SDS011;49205;44.868;38.140;2022-08-30T14:46:55;12.65;;;6.10;;
62852;SDS011;49205;44.868;38.140;2022-08-30T14:49:24;10.30;;;5.15;;
62852;SDS011;49205;44.868;38.140;2022-08-30T14:51:54;12.43;;;4.97;;
62852;SDS011;49205;44.868;38.140;2022-08-30T14:54:25;11.18;;;4.55;;
62852;SDS011;49205;44.868;38.140;2022-08-30T14:56:55;12.65;;;5.40;;
62852;SDS011;49205;44.868;38.140;2022-08-30T14:59:25;13.88;;;6.05;;
62852;SDS011;49205;44.868;38.140;2022-08-30T15:01:55;13.10;;;4.97;;
62852;SDS011;49205;44.868;38.140;2022-08-30T15:04:25;14.35;;;6.60;;
62852;SDS011;49205;44.868;38.140;2022-08-30T15:06:56;15.35;;;6.90;;
62852;SDS011;49205;44.868;38.140;2022-08-30T15:09:26;22.15;;;7.80;;
62852;SDS011;49205;44.868;38.140;2022-08-30T15:11:56;12.98;;;5.75;;
62852;SDS011;49205;44.868;38.140;2022-08-30T15:14:27;16.07;;;5.50;;
62852;SDS011;49205;44.868;38.140;2022-08-30T15:16:58;13.78;;;5.30;;
62852;SDS011;49205;44.868;38.140;2022-08-30T15:19:30;16.37;;;5.87;;
62852;SDS011;49205;44.868;38.140;2022-08-30T15:22:00;12.40;;;5.20;;
62852;SDS011;49205;44.868;38.140;2022-08-30T15:24:30;10.78;;;6.00;;
62852;SDS011;49205;44.868;38.140;2022-08-30T15:27:00;16.70;;;5.90;;
62852;SDS011;49205;44.868;38.140;2022-08-30T15:29:30;12.68;;;5.60;;
62852;SDS011;49205;44.868;38.140;2022-08-30T15:32:01;13.72;;;5.62;;
62852;SDS011;49205;44.868;38.140;2022-08-30T15:34:31;17.27;;;5.72;;
62852;SDS011;49205;44.868;38.140;2022-08-30T15:37:00;16.35;;;5.72;;
62852;SDS011;49205;44.868;38.140;2022-08-30T15:39:31;17.27;;;5.72;;
62852;SDS011;49205;44.868;38.140;2022-08-30T15:42:00;20.90;;;6.40;;
62852;SDS011;49205;44.868;38.140;2022-08-30T15:44:30;15.98;;;5.72;;
62852;SDS011;49205;44.868;38.140;2022-08-30T15:46:59;13.72;;;5.62;;
62852;SDS011;49205;44.868;38.140;2022-08-30T15:49:29;18.92;;;5.35;;
62852;SDS011;49205;44.868;38.140;2022-08-30T15:51:59;16.20;;;5.83;;
62852;SDS011;49205;44.868;38.140;2022-08-30T15:54:31;13.35;;;5.80;;
62852;SDS011;49205;44.868;38.140;2022-08-30T15:57:00;11.78;;;5.85;;
62852;SDS011;49205;44.868;38.140;2022-08-30T15:59:29;15.55;;;7.67;;
62852;SDS011;49205;44.868;38.140;2022-08-30T16:01:59;11.75;;;5.83;;